McKinley Park, Alaska
Current Conditions -  °F | °C
As of 1:36 PM on Monday 22 Dec 2014 (Local Time) from PAIN Reporting Station
Scattered Clouds Scattered Clouds  
Wind Chill:   Ceiling: Unl
Heat Index:   Visibility: 10mi
Dew Point:   Wind: 0mph
Humidity: 92%   Direction: NA
Pressure: 29.73"   Gusts: NA
Location:  63.73°N, 148.91°W
Report Text: PAIN 222236Z AUTO 00000KT 10SM SCT046 M13/M14 A2973 RMK AO1
Loading
Personal Weather Stations






























Interactive Weather Map New forecast layout! Learn more

10-Day Weather Forecast

Advertisements
Track Severe Weather on mobile